This is the latest recevied weather packets stored in our database for station/object DH0DM-13. If no packets are shown the sender has not sent any weather packets the latest 10 day(s).
| Time | Temp. | Humidity | Pressure | Rain* | Wind** | Luminosity | Snow |
|---|---|---|---|---|---|---|---|
| 1777754267 | 16.67° C | 36% | 990.9 hPa | 0 mm | 0.89 m/s, 224° | - | - |
| 1777753666 | 16.67° C | 38% | 991 hPa | 0 mm | 0 m/s | - | - |
| 1777753065 | 15.56° C | 39% | 990.8 hPa | 0 mm | 2.24 m/s, 40° | - | - |
| 1777752465 | 15.56° C | 40% | 990.9 hPa | 0 mm | 0 m/s | - | - |
| 1777751864 | 15.56° C | 42% | 991 hPa | 0 mm | 0 m/s | - | - |
| 1777751263 | 15.56° C | 42% | 991.3 hPa | 0 mm | 0 m/s | - | - |
| 1777750662 | 15° C | 44% | 991.1 hPa | 0 mm | 0 m/s | - | - |
| 1777750061 | 15.56° C | 44% | 991.2 hPa | 0 mm | 0 m/s | - | - |
| 1777749460 | 15° C | 45% | 991 hPa | 0 mm | 0 m/s | - | - |
| 1777748859 | 15.56° C | 45% | 991.1 hPa | 0 mm | 0 m/s | - | - |
| 1777748258 | 16.11° C | 44% | 991 hPa | 0 mm | 0 m/s | - | - |
| 1777747658 | 16.67° C | 43% | 990.9 hPa | 0 mm | 0 m/s | - | - |
| 1777747056 | 17.22° C | 42% | 991.1 hPa | 0 mm | 0 m/s | - | - |
| 1777746456 | 17.78° C | 39% | 991 hPa | 0 mm | 0 m/s | - | - |
| 1777745855 | 18.89° C | 37% | 990.9 hPa | 0 mm | 0 m/s | - | - |
| 1777745254 | 20° C | 34% | 991 hPa | 0 mm | 0 m/s | - | - |
| 1777744653 | 20.56° C | 32% | 991.1 hPa | 0 mm | 0 m/s | - | - |
| 1777744052 | 21.67° C | 31% | 991.2 hPa | 0 mm | 2.24 m/s, 83° | - | - |
| 1777743452 | 22.78° C | 30% | 991 hPa | 0 mm | 0 m/s | - | - |
| 1777742851 | 23.33° C | 28% | 991.1 hPa | 0 mm | 2.24 m/s, 77° | - | - |
| 1777742250 | 23.89° C | 27% | 991.1 hPa | 0 mm | 0.45 m/s, 147° | - | - |
| 1777741648 | 24.44° C | 25% | 991.2 hPa | 0 mm | 0 m/s | - | - |
| 1777741047 | 25° C | 23% | 991.2 hPa | 0 mm | 0 m/s | - | - |
| 1777740446 | 25° C | 24% | 991.4 hPa | 0 mm | 0.89 m/s, 137° | - | - |
| 1777739846 | 25.56° C | 26% | 991.5 hPa | 0 mm | 0 m/s | - | - |
* Rain since midnight (hover to see other rain measurements)
** Current wind speed in m/s (hover to see current wind gust speed)